Aviation Digital Data Service (ADDS)

Output produced by METARs form (0654 UTC 19 February 2019)
found at http://www.aviationweather.gov/metar/data/
 
METAR text: CYYH 190600Z 17006KT 15SM IC VCFG FEW090 M40/M44 A2989 RMK AC1 AC TR FROIN FG OVR TWN SLP131
Conditions at: CYYH (SPENCE BAY AIRPO, NU, CA) observed 0600 UTC 19 February 2019
Temperature: -40.0°C (-40°F)
Dewpoint: -44.0°C (-47°F) [RH = 66%]
Pressure (altimeter): 29.89 inches Hg (1012.3 mb)
[Sea-level pressure: 1013.1 mb]
Winds: from the S (170 degrees) at 7 MPH (6 knots; 3.1 m/s)
Visibility: 15 miles (24 km)
Ceiling: at least 12,000 feet AGL
Clouds: few clouds at 9000 feet AGL
Weather: IC VCFG  (ice crystals, fog in vicinity)

METAR text: CYYH 190500Z 17007KT 15SM IC VCFG FEW090 M39/M44 A2990 RMK AC1 AC TR FROIN FG OVR TWN SLP133
Conditions at: CYYH (SPENCE BAY AIRPO, NU, CA) observed 0500 UTC 19 February 2019
Temperature: -39.0°C (-38°F)
Dewpoint: -44.0°C (-47°F) [RH = 59%]
Pressure (altimeter): 29.90 inches Hg (1012.6 mb)
[Sea-level pressure: 1013.3 mb]
Winds: from the S (170 degrees) at 8 MPH (7 knots; 3.6 m/s)
Visibility: 15 miles (24 km)
Ceiling: at least 12,000 feet AGL
Clouds: few clouds at 9000 feet AGL
Weather: IC VCFG  (ice crystals, fog in vicinity)

METAR text: CYYH 190400Z 16008KT 15SM IC VCFG FEW090 M40/M44 A2991 RMK AC1 AC TR FROIN FG OVR TWN SLP136
Conditions at: CYYH (SPENCE BAY AIRPO, NU, CA) observed 0400 UTC 19 February 2019
Temperature: -40.0°C (-40°F)
Dewpoint: -44.0°C (-47°F) [RH = 66%]
Pressure (altimeter): 29.91 inches Hg (1013.0 mb)
[Sea-level pressure: 1013.6 mb]
Winds: from the SSE (160 degrees) at 9 MPH (8 knots; 4.1 m/s)
Visibility: 15 miles (24 km)
Ceiling: at least 12,000 feet AGL
Clouds: few clouds at 9000 feet AGL
Weather: IC VCFG  (ice crystals, fog in vicinity)

METAR text: CYYH 190300Z 16010KT 15SM IC VCFG FEW090 M40/M45 A2993 RMK AC1 AC TR FROIN SLP142
Conditions at: CYYH (SPENCE BAY AIRPO, NU, CA) observed 0300 UTC 19 February 2019
Temperature: -40.0°C (-40°F)
Dewpoint: -45.0°C (-49°F) [RH = 59%]
Pressure (altimeter): 29.93 inches Hg (1013.6 mb)
[Sea-level pressure: 1014.2 mb]
Winds: from the SSE (160 degrees) at 12 MPH (10 knots; 5.1 m/s)
Visibility: 15 miles (24 km)
Ceiling: at least 12,000 feet AGL
Clouds: few clouds at 9000 feet AGL
Weather: IC VCFG  (ice crystals, fog in vicinity)

METAR text: CYYH 190200Z 17010KT 15SM IC VCFG FEW090 M40/M44 A2994 RMK AC1 AC TR FROIN SLP147
Conditions at: CYYH (SPENCE BAY AIRPO, NU, CA) observed 0200 UTC 19 February 2019
Temperature: -40.0°C (-40°F)
Dewpoint: -44.0°C (-47°F) [RH = 66%]
Pressure (altimeter): 29.94 inches Hg (1014.0 mb)
[Sea-level pressure: 1014.7 mb]
Winds: from the S (170 degrees) at 12 MPH (10 knots; 5.1 m/s)
Visibility: 15 miles (24 km)
Ceiling: at least 12,000 feet AGL
Clouds: few clouds at 9000 feet AGL
Weather: IC VCFG  (ice crystals, fog in vicinity)

METAR text: CYYH 190100Z 16009KT 15SM IC VCFG FEW090 M40/M44 A2995 RMK AC1 AC TR FROIN SLP151
Conditions at: CYYH (SPENCE BAY AIRPO, NU, CA) observed 0100 UTC 19 February 2019
Temperature: -40.0°C (-40°F)
Dewpoint: -44.0°C (-47°F) [RH = 66%]
Pressure (altimeter): 29.95 inches Hg (1014.3 mb)
[Sea-level pressure: 1015.1 mb]
Winds: from the SSE (160 degrees) at 10 MPH (9 knots; 4.6 m/s)
Visibility: 15 miles (24 km)
Ceiling: at least 12,000 feet AGL
Clouds: few clouds at 9000 feet AGL
Weather: IC VCFG  (ice crystals, fog in vicinity)

METAR text: CYYH 190000Z 16008KT 15SM IC VCFG FEW090 M40/M45 A2996 RMK AC1 AC TR SLP155
Conditions at: CYYH (SPENCE BAY AIRPO, NU, CA) observed 0000 UTC 19 February 2019
Temperature: -40.0°C (-40°F)
Dewpoint: -45.0°C (-49°F) [RH = 59%]
Pressure (altimeter): 29.96 inches Hg (1014.6 mb)
[Sea-level pressure: 1015.5 mb]
Winds: from the SSE (160 degrees) at 9 MPH (8 knots; 4.1 m/s)
Visibility: 15 miles (24 km)
Ceiling: at least 12,000 feet AGL
Clouds: few clouds at 9000 feet AGL
Weather: IC VCFG  (ice crystals, fog in vicinity)

METAR text: CYYH 182300Z 17008KT 15SM IC VCFG FEW090 M40/M45 A2999 RMK AC1 AC TR SLP163
Conditions at: CYYH (SPENCE BAY AIRPO, NU, CA) observed 2300 UTC 18 February 2019
Temperature: -40.0°C (-40°F)
Dewpoint: -45.0°C (-49°F) [RH = 59%]
Pressure (altimeter): 29.99 inches Hg (1015.7 mb)
[Sea-level pressure: 1016.3 mb]
Winds: from the S (170 degrees) at 9 MPH (8 knots; 4.1 m/s)
Visibility: 15 miles (24 km)
Ceiling: at least 12,000 feet AGL
Clouds: few clouds at 9000 feet AGL
Weather: IC VCFG  (ice crystals, fog in vicinity)

METAR text: CYYH 182200Z 17008KT 10SM IC VCFG FEW090 M40/M45 A3000 RMK AC1 AC TR SLP166
Conditions at: CYYH (SPENCE BAY AIRPO, NU, CA) observed 2200 UTC 18 February 2019
Temperature: -40.0°C (-40°F)
Dewpoint: -45.0°C (-49°F) [RH = 59%]
Pressure (altimeter): 30.00 inches Hg (1016.0 mb)
[Sea-level pressure: 1016.6 mb]
Winds: from the S (170 degrees) at 9 MPH (8 knots; 4.1 m/s)
Visibility: 10 or more miles (16+ km)
Ceiling: at least 12,000 feet AGL
Clouds: few clouds at 9000 feet AGL
Weather: IC VCFG  (ice crystals, fog in vicinity)

METAR text: CYYH 182100Z 18009KT 10SM IC VCFG FEW090 M40/M45 A3001 RMK AC1 AC TR SLP169
Conditions at: CYYH (SPENCE BAY AIRPO, NU, CA) observed 2100 UTC 18 February 2019
Temperature: -40.0°C (-40°F)
Dewpoint: -45.0°C (-49°F) [RH = 59%]
Pressure (altimeter): 30.01 inches Hg (1016.3 mb)
[Sea-level pressure: 1016.9 mb]
Winds: from the S (180 degrees) at 10 MPH (9 knots; 4.6 m/s)
Visibility: 10 or more miles (16+ km)
Ceiling: at least 12,000 feet AGL
Clouds: few clouds at 9000 feet AGL
Weather: IC VCFG  (ice crystals, fog in vicinity)

METAR text: CYYH 182000Z 17007KT 10SM IC VCFG SKC M39/M44 A3002 RMK SLP173
Conditions at: CYYH (SPENCE BAY AIRPO, NU, CA) observed 2000 UTC 18 February 2019
Temperature: -39.0°C (-38°F)
Dewpoint: -44.0°C (-47°F) [RH = 59%]
Pressure (altimeter): 30.02 inches Hg (1016.7 mb)
[Sea-level pressure: 1017.3 mb]
Winds: from the S (170 degrees) at 8 MPH (7 knots; 3.6 m/s)
Visibility: 10 or more miles (16+ km)
Ceiling: at least 12,000 feet AGL
Clouds: clear skies
Weather: IC VCFG  (ice crystals, fog in vicinity)

METAR text: CYYH 181900Z 17008KT 15SM VCFG SKC M39/M44 A3003 RMK SLP176
Conditions at: CYYH (SPENCE BAY AIRPO, NU, CA) observed 1900 UTC 18 February 2019
Temperature: -39.0°C (-38°F)
Dewpoint: -44.0°C (-47°F) [RH = 59%]
Pressure (altimeter): 30.03 inches Hg (1017.0 mb)
[Sea-level pressure: 1017.6 mb]
Winds: from the S (170 degrees) at 9 MPH (8 knots; 4.1 m/s)
Visibility: 15 miles (24 km)
Ceiling: at least 12,000 feet AGL
Clouds: clear skies
Weather: VCFG  (fog in vicinity)

METAR text: CYYH 181800Z CCA 16007KT 15SM VCFG SKC M40/M45 A3004 RMK SLP182
Conditions at: CYYH (SPENCE BAY AIRPO, NU, CA) observed 1800 UTC 18 February 2019
Temperature: -40.0°C (-40°F)
Dewpoint: -45.0°C (-49°F) [RH = 59%]
Pressure (altimeter): 30.04 inches Hg (1017.4 mb)
[Sea-level pressure: 1018.2 mb]
Winds: from the SSE (160 degrees) at 8 MPH (7 knots; 3.6 m/s)
Visibility: 15 miles (24 km)
Ceiling: at least 12,000 feet AGL
Clouds: clear skies
Weather: VCFG  (fog in vicinity)

METAR text: CYYH 181700Z 18009KT 15SM IC VCFG SKC M40/M45 A3006 RMK FROIN SLP187
Conditions at: CYYH (SPENCE BAY AIRPO, NU, CA) observed 1700 UTC 18 February 2019
Temperature: -40.0°C (-40°F)
Dewpoint: -45.0°C (-49°F) [RH = 59%]
Pressure (altimeter): 30.06 inches Hg (1018.0 mb)
[Sea-level pressure: 1018.7 mb]
Winds: from the S (180 degrees) at 10 MPH (9 knots; 4.6 m/s)
Visibility: 15 miles (24 km)
Ceiling: at least 12,000 feet AGL
Clouds: clear skies
Weather: IC VCFG  (ice crystals, fog in vicinity)

METAR text: CYYH 181600Z 16005KT 15SM IC VCFG FEW050 M41/M45 A3007 RMK SC1 SC TR FROIN FG OVR TWN SLP190
Conditions at: CYYH (SPENCE BAY AIRPO, NU, CA) observed 1600 UTC 18 February 2019
Temperature: -41.0°C (-42°F)
Dewpoint: -45.0°C (-49°F) [RH = 65%]
Pressure (altimeter): 30.07 inches Hg (1018.4 mb)
[Sea-level pressure: 1019.0 mb]
Winds: from the SSE (160 degrees) at 6 MPH (5 knots; 2.6 m/s)
Visibility: 15 miles (24 km)
Ceiling: at least 12,000 feet AGL
Clouds: few clouds at 5000 feet AGL
Weather: IC VCFG  (ice crystals, fog in vicinity)

METAR text: CYYH 181500Z 17007KT 15SM IC VCFG FEW050 M41/M46 A3008 RMK SC1 SC TR FROIN FG OVR TWN SLP194
Conditions at: CYYH (SPENCE BAY AIRPO, NU, CA) observed 1500 UTC 18 February 2019
Temperature: -41.0°C (-42°F)
Dewpoint: -46.0°C (-51°F) [RH = 58%]
Pressure (altimeter): 30.08 inches Hg (1018.7 mb)
[Sea-level pressure: 1019.4 mb]
Winds: from the S (170 degrees) at 8 MPH (7 knots; 3.6 m/s)
Visibility: 15 miles (24 km)
Ceiling: at least 12,000 feet AGL
Clouds: few clouds at 5000 feet AGL
Weather: IC VCFG  (ice crystals, fog in vicinity)

METAR text: CYYH 181400Z 17007KT 15SM IC VCFG FEW040 FEW080 M41/M46 A3009 RMK SC1AC1 SC TR FROIN FG OVR TWN SLP199
Conditions at: CYYH (SPENCE BAY AIRPO, NU, CA) observed 1400 UTC 18 February 2019
Temperature: -41.0°C (-42°F)
Dewpoint: -46.0°C (-51°F) [RH = 58%]
Pressure (altimeter): 30.09 inches Hg (1019.0 mb)
[Sea-level pressure: 1019.9 mb]
Winds: from the S (170 degrees) at 8 MPH (7 knots; 3.6 m/s)
Visibility: 15 miles (24 km)
Ceiling: at least 12,000 feet AGL
Clouds: few clouds at 4000 feet AGL
few clouds at 8000 feet AGL
Weather: IC VCFG  (ice crystals, fog in vicinity)

METAR text: CYYH 181300Z 17007KT 15SM IC VCFG FEW050 M41/M46 A3011 RMK SC1 SC TR FROIN FG OVR TWN SLP205
Conditions at: CYYH (SPENCE BAY AIRPO, NU, CA) observed 1300 UTC 18 February 2019
Temperature: -41.0°C (-42°F)
Dewpoint: -46.0°C (-51°F) [RH = 58%]
Pressure (altimeter): 30.11 inches Hg (1019.7 mb)
[Sea-level pressure: 1020.5 mb]
Winds: from the S (170 degrees) at 8 MPH (7 knots; 3.6 m/s)
Visibility: 15 miles (24 km)
Ceiling: at least 12,000 feet AGL
Clouds: few clouds at 5000 feet AGL
Weather: IC VCFG  (ice crystals, fog in vicinity)

METAR text: CYYH 181200Z 17009KT 15SM IC VCFG FEW050 M41/M45 A3014 RMK SC1 SC TR FROIN FG OVR TWN SLP214
Conditions at: CYYH (SPENCE BAY AIRPO, NU, CA) observed 1200 UTC 18 February 2019
Temperature: -41.0°C (-42°F)
Dewpoint: -45.0°C (-49°F) [RH = 65%]
Pressure (altimeter): 30.14 inches Hg (1020.7 mb)
[Sea-level pressure: 1021.4 mb]
Winds: from the S (170 degrees) at 10 MPH (9 knots; 4.6 m/s)
Visibility: 15 miles (24 km)
Ceiling: at least 12,000 feet AGL
Clouds: few clouds at 5000 feet AGL
Weather: IC VCFG  (ice crystals, fog in vicinity)

METAR text: CYYH 181100Z 17009KT 15SM IC VCFG SKC M41/M45 A3015 RMK FROIN FG OVR TWN SLP218
Conditions at: CYYH (SPENCE BAY AIRPO, NU, CA) observed 1100 UTC 18 February 2019
Temperature: -41.0°C (-42°F)
Dewpoint: -45.0°C (-49°F) [RH = 65%]
Pressure (altimeter): 30.15 inches Hg (1021.1 mb)
[Sea-level pressure: 1021.8 mb]
Winds: from the S (170 degrees) at 10 MPH (9 knots; 4.6 m/s)
Visibility: 15 miles (24 km)
Ceiling: at least 12,000 feet AGL
Clouds: clear skies
Weather: IC VCFG  (ice crystals, fog in vicinity)

METAR text: CYYH 181000Z 17008KT 15SM IC VCFG SKC M41/M46 A3017 RMK FROIN FG OVR TWN SLP223
Conditions at: CYYH (SPENCE BAY AIRPO, NU, CA) observed 1000 UTC 18 February 2019
Temperature: -41.0°C (-42°F)
Dewpoint: -46.0°C (-51°F) [RH = 58%]
Pressure (altimeter): 30.17 inches Hg (1021.8 mb)
[Sea-level pressure: 1022.3 mb]
Winds: from the S (170 degrees) at 9 MPH (8 knots; 4.1 m/s)
Visibility: 15 miles (24 km)
Ceiling: at least 12,000 feet AGL
Clouds: clear skies
Weather: IC VCFG  (ice crystals, fog in vicinity)

METAR text: CYYH 180900Z 18007KT 15SM IC VCFG SKC M41/M45 A3019 RMK FROIN FG OVR TWN SLP231
Conditions at: CYYH (SPENCE BAY AIRPO, NU, CA) observed 0900 UTC 18 February 2019
Temperature: -41.0°C (-42°F)
Dewpoint: -45.0°C (-49°F) [RH = 65%]
Pressure (altimeter): 30.19 inches Hg (1022.4 mb)
[Sea-level pressure: 1023.1 mb]
Winds: from the S (180 degrees) at 8 MPH (7 knots; 3.6 m/s)
Visibility: 15 miles (24 km)
Ceiling: at least 12,000 feet AGL
Clouds: clear skies
Weather: IC VCFG  (ice crystals, fog in vicinity)

METAR text: CYYH 180800Z 16007KT 15SM IC VCFG SKC M40/M45 A3020 RMK FROIN FG OVR TWN SLP235
Conditions at: CYYH (SPENCE BAY AIRPO, NU, CA) observed 0800 UTC 18 February 2019
Temperature: -40.0°C (-40°F)
Dewpoint: -45.0°C (-49°F) [RH = 59%]
Pressure (altimeter): 30.20 inches Hg (1022.8 mb)
[Sea-level pressure: 1023.5 mb]
Winds: from the SSE (160 degrees) at 8 MPH (7 knots; 3.6 m/s)
Visibility: 15 miles (24 km)
Ceiling: at least 12,000 feet AGL
Clouds: clear skies
Weather: IC VCFG  (ice crystals, fog in vicinity)

METAR text: CYYH 180700Z 18007KT 15SM IC VCFG SKC M41/M46 A3022 RMK FROIN FG OVR TWN AURBO SLP242
Conditions at: CYYH (SPENCE BAY AIRPO, NU, CA) observed 0700 UTC 18 February 2019
Temperature: -41.0°C (-42°F)
Dewpoint: -46.0°C (-51°F) [RH = 58%]
Pressure (altimeter): 30.22 inches Hg (1023.5 mb)
[Sea-level pressure: 1024.2 mb]
Winds: from the S (180 degrees) at 8 MPH (7 knots; 3.6 m/s)
Visibility: 15 miles (24 km)
Ceiling: at least 12,000 feet AGL
Clouds: clear skies
Weather: IC VCFG  (ice crystals, fog in vicinity)

METAR text: CYYH 180600Z 19005KT 15SM IC VCFG FEW030 M41/M45 A3025 RMK SC1 SC TR FROIN FG OVR TWN SLP250
Conditions at: CYYH (SPENCE BAY AIRPO, NU, CA) observed 0600 UTC 18 February 2019
Temperature: -41.0°C (-42°F)
Dewpoint: -45.0°C (-49°F) [RH = 65%]
Pressure (altimeter): 30.25 inches Hg (1024.5 mb)
[Sea-level pressure: 1025.0 mb]
Winds: from the S (190 degrees) at 6 MPH (5 knots; 2.6 m/s)
Visibility: 15 miles (24 km)
Ceiling: at least 12,000 feet AGL
Clouds: few clouds at 3000 feet AGL
Weather: IC VCFG  (ice crystals, fog in vicinity)

METAR text: CYYH 180500Z 19005KT 15SM IC VCFG FEW030 M40/M45 A3026 RMK SC1 SC TR FROIN FG OVR TWN SLP255
Conditions at: CYYH (SPENCE BAY AIRPO, NU, CA) observed 0500 UTC 18 February 2019
Temperature: -40.0°C (-40°F)
Dewpoint: -45.0°C (-49°F) [RH = 59%]
Pressure (altimeter): 30.26 inches Hg (1024.8 mb)
[Sea-level pressure: 1025.5 mb]
Winds: from the S (190 degrees) at 6 MPH (5 knots; 2.6 m/s)
Visibility: 15 miles (24 km)
Ceiling: at least 12,000 feet AGL
Clouds: few clouds at 3000 feet AGL
Weather: IC VCFG  (ice crystals, fog in vicinity)

METAR text: CYYH 180400Z CCA 17004KT 15SM IC VCFG FEW030 M40/M45 A3028 RMK SC1 SC TR FROIN FG OVR TWN SLP261
Conditions at: CYYH (SPENCE BAY AIRPO, NU, CA) observed 0400 UTC 18 February 2019
Temperature: -40.0°C (-40°F)
Dewpoint: -45.0°C (-49°F) [RH = 59%]
Pressure (altimeter): 30.28 inches Hg (1025.5 mb)
[Sea-level pressure: 1026.1 mb]
Winds: from the S (170 degrees) at 5 MPH (4 knots; 2.1 m/s)
Visibility: 15 miles (24 km)
Ceiling: at least 12,000 feet AGL
Clouds: few clouds at 3000 feet AGL
Weather: VCFG IC  (fog in vicinity, ice crystals)

METAR text: CYYH 180300Z 18005KT 15SM IC VCFG FEW030 M40/M45 A3030 RMK SC1 SC TR FROIN SLP267
Conditions at: CYYH (SPENCE BAY AIRPO, NU, CA) observed 0300 UTC 18 February 2019
Temperature: -40.0°C (-40°F)
Dewpoint: -45.0°C (-49°F) [RH = 59%]
Pressure (altimeter): 30.30 inches Hg (1026.2 mb)
[Sea-level pressure: 1026.7 mb]
Winds: from the S (180 degrees) at 6 MPH (5 knots; 2.6 m/s)
Visibility: 15 miles (24 km)
Ceiling: at least 12,000 feet AGL
Clouds: few clouds at 3000 feet AGL
Weather: IC VCFG  (ice crystals, fog in vicinity)

METAR text: CYYH 180200Z 20005KT 15SM IC FEW030 M41/M45 A3031 RMK SC1 SC TR SLP273
Conditions at: CYYH (SPENCE BAY AIRPO, NU, CA) observed 0200 UTC 18 February 2019
Temperature: -41.0°C (-42°F)
Dewpoint: -45.0°C (-49°F) [RH = 65%]
Pressure (altimeter): 30.31 inches Hg (1026.5 mb)
[Sea-level pressure: 1027.3 mb]
Winds: from the SSW (200 degrees) at 6 MPH (5 knots; 2.6 m/s)
Visibility: 15 miles (24 km)
Ceiling: at least 12,000 feet AGL
Clouds: few clouds at 3000 feet AGL
Weather: IC  (ice crystals)

METAR text: CYYH 180100Z 19004KT 15SM SKC M39/M44 A3033 RMK SLP277
Conditions at: CYYH (SPENCE BAY AIRPO, NU, CA) observed 0100 UTC 18 February 2019
Temperature: -39.0°C (-38°F)
Dewpoint: -44.0°C (-47°F) [RH = 59%]
Pressure (altimeter): 30.33 inches Hg (1027.2 mb)
[Sea-level pressure: 1027.7 mb]
Winds: from the S (190 degrees) at 5 MPH (4 knots; 2.1 m/s)
Visibility: 15 miles (24 km)
Ceiling: at least 12,000 feet AGL
Clouds: clear skies
Weather: no significant weather observed at this time

METAR text: CYYH 180000Z 17004KT 15SM FEW030 M40/M44 A3033 RMK SC1 SC TR SLP280
Conditions at: CYYH (SPENCE BAY AIRPO, NU, CA) observed 0000 UTC 18 February 2019
Temperature: -40.0°C (-40°F)
Dewpoint: -44.0°C (-47°F) [RH = 66%]
Pressure (altimeter): 30.33 inches Hg (1027.2 mb)
[Sea-level pressure: 1028.0 mb]
Winds: from the S (170 degrees) at 5 MPH (4 knots; 2.1 m/s)
Visibility: 15 miles (24 km)
Ceiling: at least 12,000 feet AGL
Clouds: few clouds at 3000 feet AGL
Weather: no significant weather observed at this time

METAR text: CYYH 172300Z 17007KT 15SM FEW030 M39/M44 A3035 RMK SC1 SC TR SLP286
Conditions at: CYYH (SPENCE BAY AIRPO, NU, CA) observed 2300 UTC 17 February 2019
Temperature: -39.0°C (-38°F)
Dewpoint: -44.0°C (-47°F) [RH = 59%]
Pressure (altimeter): 30.35 inches Hg (1027.9 mb)
[Sea-level pressure: 1028.6 mb]
Winds: from the S (170 degrees) at 8 MPH (7 knots; 3.6 m/s)
Visibility: 15 miles (24 km)
Ceiling: at least 12,000 feet AGL
Clouds: few clouds at 3000 feet AGL
Weather: no significant weather observed at this time

METAR text: CYYH 172200Z 18007KT 15SM FEW030 M39/M43 A3036 RMK SC1 SC TR SLP288
Conditions at: CYYH (SPENCE BAY AIRPO, NU, CA) observed 2200 UTC 17 February 2019
Temperature: -39.0°C (-38°F)
Dewpoint: -43.0°C (-45°F) [RH = 66%]
Pressure (altimeter): 30.36 inches Hg (1028.2 mb)
[Sea-level pressure: 1028.8 mb]
Winds: from the S (180 degrees) at 8 MPH (7 knots; 3.6 m/s)
Visibility: 15 miles (24 km)
Ceiling: at least 12,000 feet AGL
Clouds: few clouds at 3000 feet AGL
Weather: no significant weather observed at this time

METAR text: CYYH 172100Z 19006KT 15SM FEW030 M38/M43 A3037 RMK SC1 SC TR SLP291
Conditions at: CYYH (SPENCE BAY AIRPO, NU, CA) observed 2100 UTC 17 February 2019
Temperature: -38.0°C (-36°F)
Dewpoint: -43.0°C (-45°F) [RH = 59%]
Pressure (altimeter): 30.37 inches Hg (1028.5 mb)
[Sea-level pressure: 1029.1 mb]
Winds: from the S (190 degrees) at 7 MPH (6 knots; 3.1 m/s)
Visibility: 15 miles (24 km)
Ceiling: at least 12,000 feet AGL
Clouds: few clouds at 3000 feet AGL
Weather: no significant weather observed at this time

METAR text: CYYH 172000Z 17005KT 15SM FEW030 M38/M42 A3037 RMK SC1 SC TR SLP293
Conditions at: CYYH (SPENCE BAY AIRPO, NU, CA) observed 2000 UTC 17 February 2019
Temperature: -38.0°C (-36°F)
Dewpoint: -42.0°C (-44°F) [RH = 66%]
Pressure (altimeter): 30.37 inches Hg (1028.5 mb)
[Sea-level pressure: 1029.3 mb]
Winds: from the S (170 degrees) at 6 MPH (5 knots; 2.6 m/s)
Visibility: 15 miles (24 km)
Ceiling: at least 12,000 feet AGL
Clouds: few clouds at 3000 feet AGL
Weather: no significant weather observed at this time

METAR text: CYYH 171900Z 20005KT 15SM FEW080 M38/M42 A3038 RMK AC1 AC TR CONTRAIL SLP294
Conditions at: CYYH (SPENCE BAY AIRPO, NU, CA) observed 1900 UTC 17 February 2019
Temperature: -38.0°C (-36°F)
Dewpoint: -42.0°C (-44°F) [RH = 66%]
Pressure (altimeter): 30.38 inches Hg (1028.9 mb)
[Sea-level pressure: 1029.4 mb]
Winds: from the SSW (200 degrees) at 6 MPH (5 knots; 2.6 m/s)
Visibility: 15 miles (24 km)
Ceiling: at least 12,000 feet AGL
Clouds: few clouds at 8000 feet AGL
Weather: no significant weather observed at this time

Forecast for: CYYH (SPENCE BAY AIRPO, NU, CA)
Text: TAF CYYH 190538Z 1906/1918 17008KT P6SM IC FEW090
Forecast period: 0600 to 1800 UTC 19 February 2019
Forecast type: FROM: standard forecast or significant change
Winds: from the S (170 degrees) at 9 MPH (8 knots; 4.1 m/s)
Visibility: 6 or more miles 10+ km)
Ceiling: at least 12,000 feet AGL
Clouds: few clouds at 9000 feet AGL
Weather: IC  (ice crystals)
Text: TEMPO 1906/1918 5SM IC BR RMK NXT FCST BY 191200Z
Forecast period: 0600 to 1800 UTC 19 February 2019
Forecast type: TEMPORARY: The following changes expected for less than half the time period
Visibility: 5 miles (8 km)
Ceiling: unknown
Clouds: missing
Weather: IC BR  (ice crystals, mist)